createdAt,value
2019-01-13T00:02:11.546Z,2.30
2019-01-13T00:04:41.219Z,1.77
2019-01-13T00:07:10.915Z,1.83
2019-01-13T00:09:40.532Z,1.80
2019-01-13T00:12:10.152Z,1.80
2019-01-13T00:14:39.873Z,2.80
2019-01-13T00:17:09.510Z,1.80
2019-01-13T00:19:39.147Z,2.40
2019-01-13T00:22:10.328Z,2.27
2019-01-13T00:24:40.172Z,1.63
2019-01-13T00:27:09.846Z,1.87
2019-01-13T00:29:39.506Z,1.63
2019-01-13T00:32:09.170Z,1.67
2019-01-13T00:34:38.831Z,1.97
2019-01-13T00:37:08.461Z,1.73
2019-01-13T00:39:38.122Z,1.20
2019-01-13T00:42:07.765Z,1.87
2019-01-13T00:44:37.467Z,1.93
2019-01-13T00:47:07.130Z,1.43
2019-01-13T00:49:36.804Z,1.10
2019-01-13T00:52:06.533Z,1.60
2019-01-13T00:54:36.252Z,1.10
2019-01-13T00:57:06.130Z,1.40
2019-01-13T00:59:35.798Z,1.33
2019-01-13T01:02:05.832Z,1.20
2019-01-13T01:04:35.526Z,2.17
2019-01-13T01:07:05.819Z,1.60
2019-01-13T01:09:35.474Z,1.40
2019-01-13T01:12:05.242Z,1.70
2019-01-13T01:14:34.920Z,1.30
2019-01-13T01:17:04.673Z,1.43
2019-01-13T01:19:34.310Z,1.27
2019-01-13T01:22:03.990Z,1.20
2019-01-13T01:24:33.654Z,1.50
2019-01-13T01:27:03.321Z,1.60
2019-01-13T01:29:33.012Z,1.40
2019-01-13T01:32:02.606Z,1.50
2019-01-13T01:34:32.326Z,1.27
2019-01-13T01:37:01.941Z,1.23
2019-01-13T01:39:31.621Z,1.40
2019-01-13T01:42:01.262Z,1.20
2019-01-13T01:44:30.950Z,1.53
2019-01-13T01:47:00.572Z,1.23
2019-01-13T01:49:30.216Z,1.33
2019-01-13T01:51:59.919Z,1.20
2019-01-13T01:54:29.649Z,1.00
2019-01-13T01:56:59.286Z,1.00
2019-01-13T01:59:28.975Z,0.93
2019-01-13T02:01:58.651Z,0.90
2019-01-13T02:04:28.285Z,1.10
2019-01-13T02:06:58.076Z,0.90
2019-01-13T02:09:27.778Z,1.00
2019-01-13T02:11:57.512Z,0.77
2019-01-13T02:14:27.249Z,1.03
2019-01-13T02:16:56.955Z,0.90
2019-01-13T02:19:26.596Z,1.60
2019-01-13T02:21:56.303Z,1.23
2019-01-13T02:24:25.925Z,1.40
2019-01-13T02:26:55.601Z,1.20
2019-01-13T02:29:25.336Z,0.80
2019-01-13T02:31:54.983Z,1.37
2019-01-13T02:34:24.821Z,1.37
2019-01-13T02:36:54.471Z,1.43
2019-01-13T02:39:24.165Z,1.10
2019-01-13T02:41:53.856Z,1.13
2019-01-13T02:44:23.579Z,1.27
2019-01-13T02:46:53.256Z,1.20
2019-01-13T02:49:22.954Z,1.00
2019-01-13T02:51:52.578Z,1.20
2019-01-13T02:54:22.293Z,1.40
2019-01-13T02:56:51.915Z,1.03
2019-01-13T02:59:21.626Z,0.80
2019-01-13T03:01:51.336Z,1.20
2019-01-13T03:04:20.996Z,1.20
2019-01-13T03:06:50.704Z,1.10
2019-01-13T03:09:20.422Z,1.50
2019-01-13T03:11:50.104Z,0.80
2019-01-13T03:14:19.757Z,0.70
2019-01-13T03:16:49.472Z,1.07
2019-01-13T03:19:19.324Z,1.10
2019-01-13T03:21:48.994Z,1.17
2019-01-13T03:24:18.689Z,1.40
2019-01-13T03:26:48.369Z,0.90
2019-01-13T03:29:18.045Z,1.07
2019-01-13T03:31:47.709Z,1.17
2019-01-13T03:34:17.429Z,0.80
2019-01-13T03:36:47.133Z,1.20
2019-01-13T03:39:16.858Z,1.00
2019-01-13T03:41:46.670Z,1.30
2019-01-13T03:44:16.344Z,1.03
2019-01-13T03:46:46.076Z,1.27
2019-01-13T03:49:15.733Z,1.20
2019-01-13T03:51:45.366Z,1.17
2019-01-13T03:54:15.068Z,0.97
2019-01-13T03:56:44.731Z,1.13
2019-01-13T03:59:14.440Z,1.37
2019-01-13T04:01:44.114Z,0.97
2019-01-13T04:04:13.751Z,1.23
2019-01-13T04:06:43.460Z,1.60
2019-01-13T04:09:13.120Z,1.30
2019-01-13T04:11:42.836Z,1.20
2019-01-13T04:14:12.465Z,1.83
2019-01-13T04:16:42.408Z,1.80
2019-01-13T04:19:11.986Z,1.30
2019-01-13T04:21:41.646Z,0.83
2019-01-13T04:24:11.288Z,1.00
2019-01-13T04:26:40.995Z,1.20
2019-01-13T04:29:10.696Z,1.67
2019-01-13T04:31:40.405Z,1.20
2019-01-13T04:34:10.096Z,1.27
2019-01-13T04:36:39.760Z,0.90
2019-01-13T04:39:09.445Z,0.80
2019-01-13T04:41:39.070Z,0.90
2019-01-13T04:44:08.749Z,1.10
2019-01-13T04:46:38.709Z,0.67
2019-01-13T04:49:08.445Z,1.57
2019-01-13T04:51:38.300Z,1.00
2019-01-13T04:54:08.026Z,1.07
2019-01-13T04:56:37.703Z,0.90
2019-01-13T04:59:07.331Z,0.97
2019-01-13T05:01:37.032Z,0.80
2019-01-13T05:04:06.674Z,0.87
2019-01-13T05:06:36.414Z,0.70
2019-01-13T05:09:08.890Z,1.03
2019-01-13T05:11:38.578Z,1.43
2019-01-13T05:14:08.214Z,0.60
2019-01-13T05:16:37.916Z,0.93
2019-01-13T05:19:07.604Z,1.13
2019-01-13T05:21:37.237Z,0.97
2019-01-13T05:24:06.940Z,0.90
2019-01-13T05:26:36.565Z,0.80
2019-01-13T05:29:06.250Z,1.00
2019-01-13T05:31:41.934Z,1.20
2019-01-13T05:34:07.295Z,0.80
2019-01-13T05:36:37.067Z,1.20
2019-01-13T05:39:08.238Z,0.90
2019-01-13T05:41:38.035Z,1.10
2019-01-13T05:44:07.684Z,1.03
2019-01-13T05:46:37.397Z,0.87
2019-01-13T05:49:07.054Z,0.97
2019-01-13T05:51:36.683Z,1.10
2019-01-13T05:54:06.405Z,1.43
2019-01-13T05:56:36.148Z,1.83
2019-01-13T05:59:05.846Z,1.30
2019-01-13T06:01:35.605Z,1.40
2019-01-13T06:04:05.497Z,1.40
2019-01-13T06:06:35.256Z,1.77
2019-01-13T06:09:07.782Z,1.40
2019-01-13T06:11:37.510Z,1.67
2019-01-13T06:14:07.199Z,2.13
2019-01-13T06:16:36.887Z,1.53
2019-01-13T06:19:06.510Z,2.00
2019-01-13T06:21:36.194Z,2.63
2019-01-13T06:24:05.807Z,1.80
2019-01-13T06:26:35.417Z,1.80
2019-01-13T06:29:05.118Z,2.17
2019-01-13T06:31:34.785Z,2.63
2019-01-13T06:34:04.527Z,2.00
2019-01-13T06:36:34.400Z,2.13
2019-01-13T06:39:05.593Z,1.30
2019-01-13T06:41:35.359Z,1.70
2019-01-13T06:44:05.142Z,1.20
2019-01-13T06:46:35.755Z,1.53
2019-01-13T06:49:05.716Z,2.00
2019-01-13T06:51:35.422Z,1.17
2019-01-13T06:54:05.447Z,1.27
2019-01-13T06:56:35.145Z,1.23
2019-01-13T06:59:04.907Z,1.13
2019-01-13T07:01:34.670Z,1.20
2019-01-13T07:04:04.815Z,1.60
2019-01-13T07:06:34.748Z,1.43
2019-01-13T07:09:06.154Z,1.57
2019-01-13T07:11:36.894Z,1.90
2019-01-13T07:14:06.763Z,1.17
2019-01-13T07:16:36.641Z,1.60
2019-01-13T07:19:06.272Z,1.20
2019-01-13T07:21:36.018Z,1.53
2019-01-13T07:24:06.008Z,1.07
2019-01-13T07:26:37.372Z,1.60
2019-01-13T07:29:07.335Z,1.30
2019-01-13T07:31:37.220Z,1.30
2019-01-13T07:34:06.944Z,1.50
2019-01-13T07:36:36.677Z,1.33
2019-01-13T07:39:08.446Z,1.60
2019-01-13T07:41:38.276Z,2.47
2019-01-13T07:44:07.988Z,1.70
2019-01-13T07:46:37.695Z,2.40
2019-01-13T07:49:07.353Z,4.73
2019-01-13T07:51:37.078Z,2.70
2019-01-13T07:54:06.806Z,1.97
2019-01-13T07:56:36.593Z,1.93
2019-01-13T07:59:06.230Z,1.87
2019-01-13T08:01:35.973Z,2.23
2019-01-13T08:04:06.061Z,2.30
2019-01-13T08:06:35.824Z,1.93
2019-01-13T08:09:08.388Z,2.07
2019-01-13T08:11:38.039Z,2.03
2019-01-13T08:14:07.767Z,2.10
2019-01-13T08:16:37.635Z,1.97
2019-01-13T08:19:08.223Z,2.27
2019-01-13T08:21:37.973Z,2.73
2019-01-13T08:24:07.684Z,2.23
2019-01-13T08:26:37.340Z,2.47
2019-01-13T08:29:09.022Z,2.37
2019-01-13T08:31:38.791Z,2.93
2019-01-13T08:34:08.489Z,3.30
2019-01-13T08:36:38.289Z,3.23
2019-01-13T08:39:09.140Z,3.10
2019-01-13T08:41:38.918Z,2.67
2019-01-13T08:44:08.717Z,2.90
2019-01-13T08:46:38.405Z,3.30
2019-01-13T08:49:08.190Z,3.13
2019-01-13T08:51:37.945Z,2.70
2019-01-13T08:54:07.606Z,2.80
2019-01-13T08:56:37.310Z,3.87
2019-01-13T08:59:07.152Z,6.07
2019-01-13T09:01:36.905Z,3.17
2019-01-13T09:04:06.578Z,3.30
2019-01-13T09:06:36.290Z,3.00
2019-01-13T09:09:09.476Z,2.67
2019-01-13T09:11:39.228Z,4.43
2019-01-13T09:14:08.899Z,3.20
2019-01-13T09:16:38.553Z,2.80
2019-01-13T09:19:08.289Z,2.67
2019-01-13T09:21:38.204Z,2.40
2019-01-13T09:24:07.868Z,1.93
2019-01-13T09:26:38.830Z,2.57
2019-01-13T09:29:08.796Z,2.40
2019-01-13T09:31:38.502Z,2.57
2019-01-13T09:34:08.160Z,2.53
2019-01-13T09:36:38.123Z,3.37
2019-01-13T09:39:09.918Z,2.97
2019-01-13T09:41:39.770Z,2.70
2019-01-13T09:44:09.450Z,2.63
2019-01-13T09:46:39.132Z,2.70
2019-01-13T09:49:08.839Z,2.70
2019-01-13T09:51:38.486Z,2.47
2019-01-13T09:54:08.208Z,2.30
2019-01-13T09:56:37.961Z,2.67
2019-01-13T09:59:07.685Z,2.80
2019-01-13T10:01:37.401Z,2.67
2019-01-13T10:04:07.068Z,2.60
2019-01-13T10:06:36.802Z,2.60
2019-01-13T10:09:09.297Z,2.20
2019-01-13T10:11:40.549Z,2.37
2019-01-13T10:14:10.408Z,2.43
2019-01-13T10:16:40.155Z,2.40
2019-01-13T10:19:09.952Z,2.10
2019-01-13T10:21:40.224Z,2.10
2019-01-13T10:24:10.007Z,2.37
2019-01-13T10:26:41.187Z,2.10
2019-01-13T10:29:11.324Z,2.20
2019-01-13T10:31:42.897Z,3.33
2019-01-13T10:34:12.737Z,1.90
2019-01-13T10:36:42.413Z,2.17
2019-01-13T10:39:12.360Z,2.90
2019-01-13T10:41:42.590Z,2.17
2019-01-13T10:44:12.446Z,1.83
2019-01-13T10:46:42.297Z,2.03
2019-01-13T10:49:12.117Z,2.03
2019-01-13T10:51:41.910Z,3.47
2019-01-13T10:54:12.238Z,2.27
2019-01-13T10:56:44.010Z,1.80
2019-01-13T10:59:18.376Z,1.90
2019-01-13T11:01:48.655Z,1.63
2019-01-13T11:04:18.826Z,2.10
2019-01-13T11:06:48.901Z,1.93
2019-01-13T11:09:20.252Z,1.77
2019-01-13T11:11:51.327Z,2.10
2019-01-13T11:14:21.575Z,1.50
2019-01-13T11:16:51.963Z,1.90
2019-01-13T11:19:26.824Z,1.90
2019-01-13T11:22:01.492Z,1.30
2019-01-13T11:24:34.004Z,1.33
2019-01-13T11:27:05.749Z,0.97
2019-01-13T11:29:36.810Z,1.17
2019-01-13T11:32:11.207Z,1.23
2019-01-13T11:34:45.062Z,0.93
2019-01-13T11:37:16.189Z,1.10
2019-01-13T11:39:48.188Z,1.30
2019-01-13T11:42:20.307Z,1.10
2019-01-13T11:44:51.654Z,1.13
2019-01-13T11:47:25.095Z,1.43
2019-01-13T11:49:56.660Z,1.10
2019-01-13T11:52:27.439Z,0.90
2019-01-13T11:54:58.178Z,0.80
2019-01-13T11:57:29.828Z,0.80
2019-01-13T12:00:04.833Z,1.00
2019-01-13T12:02:36.536Z,0.70
2019-01-13T12:05:09.929Z,1.30
2019-01-13T12:07:42.202Z,0.77
2019-01-13T12:10:22.411Z,0.90
2019-01-13T12:12:53.856Z,0.80
2019-01-13T12:15:26.935Z,0.60
2019-01-13T12:17:57.775Z,0.80
2019-01-13T12:20:30.197Z,0.60
2019-01-13T12:23:05.362Z,0.60
2019-01-13T12:25:36.376Z,0.90
2019-01-13T12:28:08.846Z,0.70
2019-01-13T12:30:39.348Z,1.03
2019-01-13T12:33:09.094Z,0.50
2019-01-13T12:35:40.492Z,0.70
2019-01-13T12:38:10.366Z,1.03
2019-01-13T12:40:41.856Z,1.17
2019-01-13T12:43:11.929Z,0.77
2019-01-13T12:45:42.113Z,1.00
2019-01-13T12:48:12.364Z,1.00
2019-01-13T12:50:42.583Z,1.10
2019-01-13T12:53:12.427Z,1.27
2019-01-13T12:55:42.975Z,1.00
2019-01-13T12:58:13.677Z,0.93
2019-01-13T13:00:43.819Z,1.30
2019-01-13T13:03:13.861Z,1.17
2019-01-13T13:05:43.809Z,1.33
2019-01-13T13:08:14.072Z,1.50
2019-01-13T13:10:46.324Z,1.40
2019-01-13T13:13:16.300Z,2.17
2019-01-13T13:15:46.464Z,1.67
2019-01-13T13:18:23.285Z,2.10
2019-01-13T13:21:14.376Z,2.50
2019-01-13T13:24:23.226Z,2.50
2019-01-13T13:26:53.349Z,1.87
2019-01-13T13:29:38.259Z,2.10
2019-01-13T13:32:09.684Z,2.13
2019-01-13T13:34:41.602Z,2.40
2019-01-13T13:37:21.895Z,2.33
2019-01-13T13:39:59.096Z,2.23
2019-01-13T13:42:32.982Z,2.00
2019-01-13T13:45:05.275Z,2.00
2019-01-13T13:47:37.669Z,2.10
2019-01-13T13:50:10.233Z,1.93
2019-01-13T13:52:41.821Z,1.83
2019-01-13T13:55:15.068Z,2.10
2019-01-13T13:57:46.045Z,1.70
2019-01-13T14:00:24.518Z,1.93
2019-01-13T14:02:56.122Z,1.70
2019-01-13T14:05:27.433Z,1.70
2019-01-13T14:07:59.755Z,2.10
2019-01-13T14:10:33.720Z,1.70
2019-01-13T14:13:04.006Z,1.73
2019-01-13T14:15:35.319Z,2.03
2019-01-13T14:18:08.433Z,2.53
2019-01-13T14:20:40.158Z,3.00
2019-01-13T14:23:11.013Z,1.70
2019-01-13T14:25:43.427Z,2.27
2019-01-13T14:28:15.900Z,1.80
2019-01-13T14:30:48.051Z,1.80
2019-01-13T14:33:20.199Z,2.00
2019-01-13T14:35:55.211Z,1.80
2019-01-13T14:38:25.359Z,1.67
2019-01-13T14:40:56.241Z,2.77
2019-01-13T14:43:28.492Z,2.60
2019-01-13T14:46:01.717Z,2.80
2019-01-13T14:48:33.070Z,1.47
2019-01-13T14:51:05.374Z,1.57
2019-01-13T14:53:35.669Z,1.50
2019-01-13T14:56:07.867Z,1.30
2019-01-13T14:58:38.934Z,1.47
2019-01-13T15:01:09.026Z,1.07
2019-01-13T15:03:39.119Z,1.30
2019-01-13T15:06:10.194Z,1.10
2019-01-13T15:08:40.741Z,1.03
2019-01-13T15:11:11.219Z,1.00
2019-01-13T15:13:41.116Z,1.60
2019-01-13T15:16:12.264Z,1.13
2019-01-13T15:18:42.200Z,1.40
2019-01-13T15:21:12.137Z,1.63
2019-01-13T15:23:42.482Z,1.50
2019-01-13T15:26:13.748Z,3.43
2019-01-13T15:28:45.979Z,1.40
2019-01-13T15:31:16.155Z,1.70
2019-01-13T15:33:46.719Z,0.90
2019-01-13T15:36:17.500Z,1.00
2019-01-13T15:38:47.757Z,1.43
2019-01-13T15:41:18.467Z,1.40
2019-01-13T15:43:48.648Z,1.60
2019-01-13T15:46:21.095Z,1.50
2019-01-13T15:48:51.208Z,1.80
2019-01-13T15:51:21.332Z,1.83
2019-01-13T15:53:51.114Z,3.37
2019-01-13T15:56:22.305Z,1.40
2019-01-13T15:58:52.399Z,1.07
2019-01-13T16:01:22.228Z,0.87
2019-01-13T16:03:52.467Z,1.00
2019-01-13T16:06:22.576Z,1.00
2019-01-13T16:08:52.397Z,0.80
2019-01-13T16:11:22.468Z,0.90
2019-01-13T16:13:52.268Z,1.13
2019-01-13T16:16:22.535Z,1.30
2019-01-13T16:18:52.544Z,1.43
2019-01-13T16:21:22.889Z,2.20
2019-01-13T16:23:52.580Z,2.30
2019-01-13T16:26:22.723Z,2.23
2019-01-13T16:28:53.156Z,1.30
2019-01-13T16:31:23.221Z,1.30
2019-01-13T16:33:53.269Z,1.53
2019-01-13T16:36:23.243Z,2.13
2019-01-13T16:38:53.013Z,1.90
2019-01-13T16:41:22.803Z,1.20
2019-01-13T16:43:52.819Z,1.60
2019-01-13T16:46:22.603Z,1.00
2019-01-13T16:48:52.440Z,1.10
2019-01-13T16:51:22.244Z,1.57
2019-01-13T16:53:52.047Z,1.60
2019-01-13T16:56:22.241Z,1.57
2019-01-13T16:58:52.052Z,1.93
2019-01-13T17:01:22.219Z,1.40
2019-01-13T17:03:52.988Z,1.30
2019-01-13T17:06:24.046Z,1.57
2019-01-13T17:08:54.749Z,1.10
2019-01-13T17:11:26.460Z,1.40
2019-01-13T17:13:57.831Z,1.63
2019-01-13T17:16:28.009Z,1.33
2019-01-13T17:19:01.138Z,2.10
2019-01-13T17:21:34.324Z,1.40
2019-01-13T17:24:06.178Z,1.47
2019-01-13T17:26:37.340Z,1.30
2019-01-13T17:29:12.301Z,0.90
2019-01-13T17:31:43.921Z,1.07
2019-01-13T17:34:14.265Z,1.30
2019-01-13T17:36:45.683Z,1.13
2019-01-13T17:39:17.958Z,1.00
2019-01-13T17:41:48.727Z,1.27
2019-01-13T17:44:19.836Z,1.10
2019-01-13T17:46:52.135Z,1.10
2019-01-13T17:49:29.558Z,1.10
2019-01-13T17:52:02.564Z,1.10
2019-01-13T17:54:32.945Z,0.80
2019-01-13T17:57:03.305Z,1.50
2019-01-13T17:59:36.125Z,1.57
2019-01-13T18:02:06.319Z,1.03
2019-01-13T18:04:43.117Z,1.17
2019-01-13T18:07:12.387Z,1.00
2019-01-13T18:09:45.848Z,1.00
2019-01-13T18:12:16.909Z,1.00
2019-01-13T18:14:47.375Z,1.10
2019-01-13T18:17:18.027Z,0.50
2019-01-13T18:19:56.154Z,0.40
2019-01-13T18:22:26.101Z,0.70
2019-01-13T18:24:59.939Z,0.83
2019-01-13T18:27:31.014Z,1.00
2019-01-13T18:30:01.455Z,0.80
2019-01-13T18:32:32.295Z,0.70
2019-01-13T18:35:03.235Z,0.70
2019-01-13T18:37:33.309Z,0.70
2019-01-13T18:40:04.208Z,0.93
2019-01-13T18:42:34.147Z,0.87
2019-01-13T18:45:04.111Z,0.60
2019-01-13T18:47:33.998Z,0.90
2019-01-13T18:50:05.589Z,1.00
2019-01-13T18:52:35.296Z,0.60
2019-01-13T18:55:05.713Z,1.00
2019-01-13T18:57:37.859Z,4.13
2019-01-13T19:00:10.274Z,1.70
2019-01-13T19:02:40.041Z,1.90
2019-01-13T19:05:12.267Z,2.20
2019-01-13T19:07:42.145Z,1.77
2019-01-13T19:10:21.605Z,1.67
2019-01-13T19:12:52.758Z,1.10
2019-01-13T19:15:22.817Z,1.90
2019-01-13T19:17:54.605Z,1.33
2019-01-13T19:20:29.972Z,1.10
2019-01-13T19:23:05.191Z,0.80
2019-01-13T19:25:36.350Z,1.30
2019-01-13T19:28:06.164Z,3.17
2019-01-13T19:30:36.197Z,2.10
2019-01-13T19:33:06.203Z,1.63
2019-01-13T19:35:35.996Z,1.40
2019-01-13T19:38:06.012Z,2.57
2019-01-13T19:40:38.284Z,1.33
2019-01-13T19:43:09.054Z,2.03
2019-01-13T19:45:38.701Z,2.07
2019-01-13T19:48:08.885Z,2.50
2019-01-13T19:50:38.812Z,1.53
2019-01-13T19:53:08.442Z,2.23
2019-01-13T19:55:38.537Z,1.33
2019-01-13T19:58:08.395Z,1.43
2019-01-13T20:00:38.673Z,1.77
2019-01-13T20:03:08.626Z,2.67
2019-01-13T20:05:38.328Z,2.30
2019-01-13T20:08:08.200Z,1.50
2019-01-13T20:10:38.343Z,1.67
2019-01-13T20:13:07.988Z,1.70
2019-01-13T20:15:37.827Z,1.70
2019-01-13T20:18:08.589Z,2.10
2019-01-13T20:20:39.346Z,2.13
2019-01-13T20:23:09.059Z,1.60
2019-01-13T20:25:38.775Z,2.43
2019-01-13T20:28:08.758Z,1.90
2019-01-13T20:30:40.799Z,1.53
2019-01-13T20:33:10.847Z,1.70
2019-01-13T20:35:40.823Z,1.97
2019-01-13T20:38:10.603Z,1.77
2019-01-13T20:40:40.363Z,2.00
2019-01-13T20:43:10.033Z,1.43
2019-01-13T20:45:42.334Z,2.53
2019-01-13T20:48:12.275Z,1.50
2019-01-13T20:50:44.077Z,2.53
2019-01-13T20:53:13.945Z,1.93
2019-01-13T20:55:43.599Z,2.53
2019-01-13T20:58:13.323Z,1.80
2019-01-13T21:00:43.047Z,2.30
2019-01-13T21:03:12.701Z,2.73
2019-01-13T21:05:42.374Z,1.80
2019-01-13T21:08:12.140Z,1.53
2019-01-13T21:10:42.022Z,2.17
2019-01-13T21:13:11.920Z,2.43
2019-01-13T21:15:42.652Z,2.03
2019-01-13T21:18:12.288Z,1.80
2019-01-13T21:20:42.324Z,1.43
2019-01-13T21:23:13.840Z,1.77
2019-01-13T21:25:43.608Z,1.57
2019-01-13T21:28:13.467Z,1.73
2019-01-13T21:30:43.196Z,1.70
2019-01-13T21:33:12.896Z,1.30
2019-01-13T21:35:42.622Z,1.63
2019-01-13T21:38:12.416Z,1.40
2019-01-13T21:40:42.137Z,1.40
2019-01-13T21:43:11.859Z,1.90
2019-01-13T21:45:41.514Z,1.43
2019-01-13T21:48:11.232Z,1.87
2019-01-13T21:50:40.847Z,1.53
2019-01-13T21:53:10.838Z,1.80
2019-01-13T21:55:40.522Z,1.67
2019-01-13T21:58:10.149Z,1.43
2019-01-13T22:00:39.911Z,2.10
2019-01-13T22:03:09.543Z,1.70
2019-01-13T22:05:41.156Z,1.53
2019-01-13T22:08:11.307Z,1.40
2019-01-13T22:10:41.012Z,1.60
2019-01-13T22:13:10.648Z,1.77
2019-01-13T22:15:40.320Z,1.30
2019-01-13T22:18:09.971Z,1.53
2019-01-13T22:20:39.728Z,1.40
2019-01-13T22:23:09.406Z,2.40
2019-01-13T22:25:39.051Z,1.87
2019-01-13T22:28:08.758Z,0.90
2019-01-13T22:30:38.412Z,1.43
2019-01-13T22:33:08.103Z,1.40
2019-01-13T22:35:37.811Z,1.53
2019-01-13T22:38:07.622Z,1.63
2019-01-13T22:40:37.408Z,1.40
2019-01-13T22:43:07.120Z,1.43
2019-01-13T22:45:36.828Z,1.43
2019-01-13T22:48:06.543Z,1.10
2019-01-13T22:50:36.368Z,1.70
2019-01-13T22:53:06.034Z,1.40
2019-01-13T22:55:35.776Z,2.03
2019-01-13T22:58:05.991Z,1.97
2019-01-13T23:01:03.840Z,2.57
2019-01-13T23:03:33.585Z,0.93
2019-01-13T23:06:03.308Z,1.47
2019-01-13T23:08:32.958Z,1.03
2019-01-13T23:11:02.687Z,1.73
2019-01-13T23:13:32.386Z,1.20
2019-01-13T23:16:02.100Z,1.33
2019-01-13T23:18:31.855Z,1.87
2019-01-13T23:21:01.570Z,1.57
2019-01-13T23:23:31.346Z,1.10
2019-01-13T23:26:01.089Z,1.23
2019-01-13T23:28:30.780Z,0.90
2019-01-13T23:31:00.494Z,0.83
2019-01-13T23:33:30.162Z,0.87
2019-01-13T23:36:02.828Z,1.33
2019-01-13T23:38:31.299Z,1.20
2019-01-13T23:41:01.001Z,1.93
2019-01-13T23:43:30.709Z,1.57
2019-01-13T23:46:00.437Z,1.20
2019-01-13T23:48:30.296Z,1.20
2019-01-13T23:51:00.142Z,2.00
2019-01-13T23:53:29.878Z,1.77
2019-01-13T23:55:59.579Z,3.03
2019-01-13T23:58:29.277Z,1.87
